createdAt,value
2022-10-17T00:02:06.760Z,21.03
2022-10-17T00:04:54.955Z,19.13
2022-10-17T00:07:42.837Z,18.20
2022-10-17T00:10:31.544Z,19.23
2022-10-17T00:13:19.520Z,18.53
2022-10-17T00:16:09.780Z,19.07
2022-10-17T00:18:58.433Z,20.50
2022-10-17T00:21:48.855Z,17.40
2022-10-17T00:24:37.005Z,17.73
2022-10-17T00:27:25.647Z,19.83
2022-10-17T00:30:15.602Z,18.27
2022-10-17T00:33:05.808Z,18.43
2022-10-17T00:36:06.911Z,17.87
2022-10-17T00:38:59.163Z,18.37
2022-10-17T00:41:48.669Z,17.70
2022-10-17T00:45:16.102Z,18.53
2022-10-17T00:48:09.622Z,18.07
2022-10-17T00:51:00.422Z,17.07
2022-10-17T00:53:51.584Z,17.35
2022-10-17T00:56:40.424Z,17.63
2022-10-17T00:59:32.773Z,19.17
2022-10-17T01:02:23.308Z,17.80
2022-10-17T01:05:12.330Z,17.97
2022-10-17T01:08:02.109Z,18.60
2022-10-17T01:11:01.299Z,18.77
2022-10-17T01:13:57.712Z,18.90
2022-10-17T01:16:54.115Z,19.33
2022-10-17T01:20:15.642Z,19.60
2022-10-17T01:23:19.009Z,18.87
2022-10-17T01:26:16.317Z,18.80
2022-10-17T01:29:30.038Z,20.20
2022-10-17T01:32:22.484Z,20.00
2022-10-17T01:35:18.843Z,21.37
2022-10-17T01:38:13.741Z,21.43
2022-10-17T01:41:09.524Z,21.23
2022-10-17T01:44:03.835Z,23.23
2022-10-17T01:46:58.663Z,21.47
2022-10-17T01:49:51.754Z,22.13
2022-10-17T01:52:42.859Z,22.53
2022-10-17T01:55:35.326Z,21.70
2022-10-17T02:01:16.356Z,20.93
2022-10-17T02:04:06.748Z,21.40
2022-10-17T02:06:54.834Z,20.40
2022-10-17T02:09:44.091Z,20.03
2022-10-17T02:12:54.901Z,20.90
2022-10-17T02:16:06.854Z,20.23
2022-10-17T02:19:13.903Z,20.07
2022-10-17T02:22:14.046Z,20.83
2022-10-17T02:25:08.465Z,20.43
2022-10-17T02:28:04.528Z,20.63
2022-10-17T02:30:59.119Z,19.57
2022-10-17T02:33:55.086Z,20.17
2022-10-17T02:36:47.929Z,19.37
2022-10-17T02:39:38.361Z,19.70
2022-10-17T02:42:29.438Z,20.47
2022-10-17T02:45:19.047Z,20.33
2022-10-17T02:48:11.310Z,20.33
2022-10-17T02:51:07.836Z,19.10
2022-10-17T02:54:05.795Z,20.30
2022-10-17T02:56:59.937Z,19.77
2022-10-17T02:59:50.054Z,18.90
2022-10-17T03:02:45.495Z,20.33
2022-10-17T03:05:33.635Z,20.33
2022-10-17T03:08:22.520Z,18.97
2022-10-17T03:11:10.333Z,20.27
2022-10-17T03:13:58.638Z,19.20
2022-10-17T03:16:47.042Z,20.23
2022-10-17T03:19:36.047Z,19.00
2022-10-17T03:22:24.515Z,19.90
2022-10-17T03:25:13.014Z,19.50
2022-10-17T03:28:04.959Z,19.90
2022-10-17T03:30:52.989Z,18.67
2022-10-17T03:33:41.341Z,19.37
2022-10-17T03:36:29.677Z,19.83
2022-10-17T03:39:18.556Z,20.33
2022-10-17T03:42:06.899Z,20.60
2022-10-17T03:44:55.277Z,20.60
2022-10-17T03:47:43.918Z,19.43
2022-10-17T03:50:32.114Z,22.50
2022-10-17T03:53:21.436Z,20.03
2022-10-17T03:56:17.203Z,20.57
2022-10-17T03:59:06.381Z,20.17
2022-10-17T04:01:56.376Z,19.97
2022-10-17T04:04:44.691Z,19.67
2022-10-17T04:07:33.431Z,20.40
2022-10-17T04:10:22.111Z,18.93
2022-10-17T04:13:13.222Z,18.87
2022-10-17T04:16:04.589Z,19.97
2022-10-17T04:18:55.686Z,19.60
2022-10-17T04:21:45.100Z,19.57
2022-10-17T04:24:34.925Z,20.83
2022-10-17T04:28:36.958Z,20.80
2022-10-17T04:31:25.317Z,17.93
2022-10-17T04:34:27.873Z,19.20
2022-10-17T04:37:18.542Z,19.30
2022-10-17T04:40:12.531Z,19.07
2022-10-17T04:43:07.204Z,18.13
2022-10-17T04:46:07.044Z,17.80
2022-10-17T04:48:57.253Z,17.93
2022-10-17T04:51:45.868Z,17.63
2022-10-17T04:54:47.331Z,15.97
2022-10-17T04:57:37.940Z,18.80
2022-10-17T05:00:41.501Z,18.53
2022-10-17T05:03:37.034Z,18.43
2022-10-17T05:06:27.651Z,18.20
2022-10-17T05:09:30.147Z,18.13
2022-10-17T05:12:21.359Z,16.95
2022-10-17T05:15:13.430Z,16.97
2022-10-17T05:18:08.195Z,17.10
2022-10-17T05:20:57.368Z,17.90
2022-10-17T05:23:45.596Z,17.17
2022-10-17T05:26:33.704Z,17.07
2022-10-17T05:29:22.186Z,16.87
2022-10-17T05:32:14.935Z,17.32
2022-10-17T05:35:05.248Z,17.03
2022-10-17T05:37:53.997Z,17.03
2022-10-17T05:40:42.747Z,17.13
2022-10-17T05:43:32.103Z,18.03
2022-10-17T05:46:20.199Z,18.57
2022-10-17T05:49:19.645Z,16.40
2022-10-17T05:52:23.536Z,17.83
2022-10-17T05:55:36.407Z,18.50
2022-10-17T05:58:45.629Z,17.90
2022-10-17T06:01:50.467Z,17.67
2022-10-17T06:04:45.739Z,17.47
2022-10-17T06:07:42.206Z,18.00
2022-10-17T06:10:34.947Z,17.17
2022-10-17T06:13:26.361Z,18.50
2022-10-17T06:16:15.652Z,17.73
2022-10-17T06:19:04.745Z,18.20
2022-10-17T06:21:53.097Z,18.17
2022-10-17T06:24:43.811Z,19.47
2022-10-17T06:27:32.965Z,19.23
2022-10-17T06:30:22.757Z,17.53
2022-10-17T06:33:11.498Z,19.30
2022-10-17T06:36:00.143Z,19.30
2022-10-17T06:38:48.649Z,20.33
2022-10-17T06:41:54.054Z,19.20
2022-10-17T06:44:52.434Z,20.27
2022-10-17T06:47:59.623Z,18.80
2022-10-17T06:51:42.143Z,17.50
2022-10-17T06:58:30.147Z,15.37
2022-10-17T07:01:41.785Z,14.27
2022-10-17T07:04:34.769Z,13.37
2022-10-17T07:07:23.109Z,13.50
2022-10-17T07:10:12.106Z,11.33
2022-10-17T07:13:01.771Z,11.63
2022-10-17T07:15:59.729Z,11.57
2022-10-17T07:21:39.301Z,12.60
2022-10-17T07:24:30.031Z,12.13
2022-10-17T07:27:30.139Z,11.57
2022-10-17T07:30:20.519Z,10.60
2022-10-17T07:33:24.318Z,10.47
2022-10-17T07:36:13.664Z,8.57
2022-10-17T07:39:02.233Z,8.90
2022-10-17T07:41:51.858Z,8.70
2022-10-17T07:44:40.788Z,8.67
2022-10-17T07:47:30.906Z,8.20
2022-10-17T07:50:20.961Z,7.95
2022-10-17T07:53:09.348Z,9.33
2022-10-17T07:55:57.232Z,7.50
2022-10-17T07:58:45.648Z,6.87
2022-10-17T08:01:34.423Z,6.10
2022-10-17T08:04:23.861Z,6.10
2022-10-17T08:07:20.936Z,5.85
2022-10-17T08:10:14.467Z,5.67
2022-10-17T08:13:03.401Z,6.30
2022-10-17T08:15:51.459Z,6.37
2022-10-17T08:18:43.320Z,6.30
2022-10-17T08:21:31.514Z,5.90
2022-10-17T08:24:19.796Z,5.03
2022-10-17T08:27:10.818Z,5.83
2022-10-17T08:29:59.016Z,6.47
2022-10-17T08:32:46.742Z,5.57
2022-10-17T08:35:35.066Z,6.43
2022-10-17T08:38:26.186Z,6.43
2022-10-17T08:41:31.678Z,4.70
2022-10-17T08:44:32.926Z,4.67
2022-10-17T08:47:27.947Z,4.87
2022-10-17T08:50:24.382Z,6.00
2022-10-17T08:53:21.986Z,5.27
2022-10-17T08:56:19.950Z,5.03
2022-10-17T08:59:21.013Z,3.67
2022-10-17T09:02:25.779Z,3.43
2022-10-17T09:05:37.154Z,3.27
2022-10-17T09:08:41.715Z,3.37
2022-10-17T09:11:54.639Z,3.93
2022-10-17T09:15:09.619Z,4.33
2022-10-17T09:18:02.500Z,3.67
2022-10-17T09:20:58.246Z,3.60
2022-10-17T09:23:49.167Z,3.60
2022-10-17T09:26:38.906Z,4.17
2022-10-17T09:29:36.094Z,3.67
2022-10-17T09:32:26.718Z,3.10
2022-10-17T09:35:17.626Z,3.83
2022-10-17T09:38:08.047Z,3.80
2022-10-17T09:41:00.684Z,3.53
2022-10-17T09:43:49.008Z,3.43
2022-10-17T09:46:38.900Z,3.70
2022-10-17T09:49:36.166Z,4.00
2022-10-17T09:52:29.393Z,3.90
2022-10-17T09:55:22.268Z,4.43
2022-10-17T09:58:12.419Z,3.97
2022-10-17T10:01:21.115Z,3.70
2022-10-17T10:04:14.202Z,4.55
2022-10-17T10:07:06.751Z,4.17
2022-10-17T10:09:56.843Z,3.83
2022-10-17T10:13:03.884Z,4.80
2022-10-17T10:15:52.485Z,4.57
2022-10-17T10:18:41.414Z,4.30
2022-10-17T10:21:29.961Z,4.73
2022-10-17T10:24:19.840Z,4.37
2022-10-17T10:27:13.693Z,4.20
2022-10-17T10:30:03.370Z,4.47
2022-10-17T10:32:51.726Z,3.87
2022-10-17T10:35:41.043Z,3.87
2022-10-17T10:38:29.733Z,4.37
2022-10-17T10:41:18.491Z,4.67
2022-10-17T10:44:17.118Z,4.70
2022-10-17T10:47:18.770Z,4.23
2022-10-17T10:50:23.712Z,4.05
2022-10-17T10:53:25.808Z,4.10
2022-10-17T10:56:21.545Z,4.25
2022-10-17T10:59:18.574Z,4.30
2022-10-17T11:02:18.412Z,4.13
2022-10-17T11:05:15.888Z,5.10
2022-10-17T11:08:17.235Z,4.40
2022-10-17T11:11:17.558Z,4.08
2022-10-17T11:14:13.851Z,4.30
2022-10-17T11:17:12.394Z,4.83
2022-10-17T11:20:12.237Z,4.90
2022-10-17T11:23:12.366Z,5.10
2022-10-17T11:26:06.715Z,5.60
2022-10-17T11:29:01.168Z,5.10
2022-10-17T11:31:55.665Z,4.37
2022-10-17T11:34:47.905Z,4.83
2022-10-17T11:37:41.122Z,4.97
2022-10-17T11:40:34.461Z,4.40
2022-10-17T11:43:29.227Z,4.60
2022-10-17T11:46:23.437Z,5.10
2022-10-17T11:49:20.482Z,4.67
2022-10-17T11:52:43.915Z,5.30
2022-10-17T11:55:33.881Z,4.53
2022-10-17T11:58:40.036Z,4.40
2022-10-17T12:01:38.091Z,5.23
2022-10-17T12:04:44.767Z,4.70
2022-10-17T12:10:46.327Z,5.30
2022-10-17T12:13:54.541Z,5.47
2022-10-17T12:16:48.588Z,5.87
2022-10-17T12:19:37.727Z,5.23
2022-10-17T12:22:27.343Z,5.00
2022-10-17T12:25:21.429Z,5.57
2022-10-17T12:28:16.988Z,5.87
2022-10-17T12:31:12.064Z,5.23
2022-10-17T12:34:02.548Z,5.77
2022-10-17T12:36:50.710Z,5.40
2022-10-17T12:39:47.538Z,4.90
2022-10-17T12:42:51.511Z,5.33
2022-10-17T12:45:51.941Z,5.70
2022-10-17T12:49:30.894Z,4.83
2022-10-17T12:52:25.839Z,5.30
2022-10-17T12:55:17.285Z,6.43
2022-10-17T12:58:12.821Z,6.90
2022-10-17T13:04:12.589Z,6.73
2022-10-17T13:07:01.929Z,6.50
2022-10-17T13:09:51.622Z,6.87
2022-10-17T13:12:41.306Z,6.73
2022-10-17T13:15:30.303Z,7.30
2022-10-17T13:18:24.627Z,6.97
2022-10-17T13:21:16.743Z,8.07
2022-10-17T13:24:23.455Z,8.10
2022-10-17T13:27:28.643Z,7.53
2022-10-17T13:31:19.176Z,8.80
2022-10-17T13:34:16.444Z,11.37
2022-10-17T13:37:07.334Z,11.47
2022-10-17T13:39:58.155Z,10.73
2022-10-17T13:42:49.755Z,10.53
2022-10-17T13:45:39.826Z,10.70
2022-10-17T13:48:33.524Z,11.95
2022-10-17T13:51:22.278Z,12.23
2022-10-17T13:54:33.050Z,11.17
2022-10-17T13:57:23.911Z,11.90
2022-10-17T14:00:22.289Z,11.47
2022-10-17T14:03:10.822Z,11.40
2022-10-17T14:06:14.117Z,10.97
2022-10-17T14:09:22.228Z,11.20
2022-10-17T14:12:12.741Z,9.90
2022-10-17T14:19:38.051Z,9.00
2022-10-17T14:22:28.810Z,8.77
2022-10-17T14:25:31.549Z,7.70
2022-10-17T14:28:23.819Z,8.10
2022-10-17T14:31:25.663Z,8.00
2022-10-17T14:34:24.137Z,6.57
2022-10-17T14:37:32.294Z,7.20
2022-10-17T14:40:23.194Z,6.87
2022-10-17T14:43:21.903Z,6.00
2022-10-17T14:47:41.643Z,6.57
2022-10-17T14:50:26.731Z,6.43
2022-10-17T14:53:21.670Z,6.85
2022-10-17T14:56:25.342Z,7.20
2022-10-17T14:59:30.079Z,6.43
2022-10-17T15:02:53.927Z,6.90
2022-10-17T15:05:42.146Z,7.43
2022-10-17T15:08:29.984Z,8.23
2022-10-17T15:11:17.997Z,9.33
2022-10-17T15:14:08.071Z,8.77
2022-10-17T15:16:57.322Z,14.78
2022-10-17T15:19:45.619Z,10.33
2022-10-17T15:22:36.153Z,9.70
2022-10-17T15:25:25.691Z,10.45
2022-10-17T15:28:14.468Z,8.13
2022-10-17T15:31:04.191Z,8.23
2022-10-17T15:33:52.703Z,8.73
2022-10-17T15:36:42.786Z,8.90
2022-10-17T15:39:31.314Z,9.77
2022-10-17T15:42:20.667Z,8.27
2022-10-17T15:45:11.591Z,7.43
2022-10-17T15:48:05.190Z,8.47
2022-10-17T15:50:53.345Z,8.87
2022-10-17T15:53:41.979Z,8.20
2022-10-17T15:56:36.361Z,7.47
2022-10-17T15:59:32.270Z,8.37
2022-10-17T16:02:22.731Z,7.50
2022-10-17T16:05:16.165Z,7.50
2022-10-17T16:08:04.398Z,8.50
2022-10-17T16:10:53.617Z,10.37
2022-10-17T16:13:42.490Z,9.43
2022-10-17T16:16:30.926Z,9.43
2022-10-17T16:19:20.329Z,9.90
2022-10-17T16:22:16.850Z,9.90
2022-10-17T16:25:09.527Z,9.40
2022-10-17T16:27:59.557Z,11.17
2022-10-17T16:30:48.842Z,10.00
2022-10-17T16:33:37.404Z,11.10
2022-10-17T16:36:26.815Z,9.50
2022-10-17T16:39:15.062Z,9.37
2022-10-17T16:42:03.352Z,10.63
2022-10-17T16:44:52.593Z,10.00
2022-10-17T16:47:41.370Z,10.97
2022-10-17T16:50:30.795Z,9.60
2022-10-17T16:53:19.085Z,11.00
2022-10-17T16:56:10.014Z,10.70
2022-10-17T16:59:00.958Z,10.67
2022-10-17T17:01:48.869Z,10.07
2022-10-17T17:04:37.164Z,10.13
2022-10-17T17:07:29.519Z,10.63
2022-10-17T17:10:18.793Z,10.30
2022-10-17T17:13:07.059Z,10.37
2022-10-17T17:16:09.918Z,11.30
2022-10-17T17:19:04.657Z,11.70
2022-10-17T17:21:53.314Z,12.17
2022-10-17T17:24:41.751Z,13.70
2022-10-17T17:27:30.152Z,12.63
2022-10-17T17:30:19.089Z,12.27
2022-10-17T17:33:07.216Z,13.60
2022-10-17T17:36:00.321Z,13.20
2022-10-17T17:38:49.115Z,12.23
2022-10-17T17:41:37.214Z,12.27
2022-10-17T17:44:26.201Z,12.73
2022-10-17T17:47:14.682Z,12.77
2022-10-17T17:50:03.151Z,13.00
2022-10-17T17:52:51.660Z,13.37
2022-10-17T17:55:39.777Z,13.93
2022-10-17T17:58:28.344Z,12.37
2022-10-17T18:01:21.389Z,13.37
2022-10-17T18:04:10.976Z,13.10
2022-10-17T18:06:58.853Z,13.53
2022-10-17T18:09:47.661Z,13.93
2022-10-17T18:12:36.711Z,14.57
2022-10-17T18:15:25.062Z,16.33
2022-10-17T18:18:16.365Z,15.27
2022-10-17T18:21:05.436Z,17.97
2022-10-17T18:23:54.102Z,15.87
2022-10-17T18:26:42.953Z,15.63
2022-10-17T18:29:32.197Z,16.13
2022-10-17T18:32:20.596Z,17.37
2022-10-17T18:35:46.208Z,16.33
2022-10-17T18:38:47.205Z,18.13
2022-10-17T18:41:35.260Z,17.63
2022-10-17T18:44:23.555Z,17.83
2022-10-17T18:47:11.492Z,19.63
2022-10-17T18:49:59.810Z,17.63
2022-10-17T18:52:49.237Z,19.03
2022-10-17T18:59:01.002Z,19.40
2022-10-17T19:01:56.062Z,20.90
2022-10-17T19:05:29.250Z,21.20
2022-10-17T19:09:02.348Z,20.70
2022-10-17T19:12:51.556Z,20.00
2022-10-17T19:20:08.532Z,21.10
2022-10-17T19:23:29.192Z,20.83
2022-10-17T19:27:12.022Z,20.75
2022-10-17T19:30:24.455Z,23.27
2022-10-17T19:33:12.323Z,23.33
2022-10-17T19:36:04.861Z,24.20
2022-10-17T19:38:55.650Z,24.33
2022-10-17T19:41:46.038Z,22.80
2022-10-17T19:44:34.470Z,23.33
2022-10-17T19:47:22.428Z,22.67
2022-10-17T19:50:10.888Z,22.77
2022-10-17T19:53:01.757Z,22.67
2022-10-17T19:55:50.400Z,22.67
2022-10-17T19:58:44.757Z,23.40
2022-10-17T20:01:35.219Z,22.70
2022-10-17T20:04:23.905Z,22.43
2022-10-17T20:07:13.327Z,23.47
2022-10-17T20:10:01.428Z,23.20
2022-10-17T20:12:49.843Z,23.83
2022-10-17T20:15:38.398Z,22.60
2022-10-17T20:18:27.369Z,23.10
2022-10-17T20:21:17.463Z,22.97
2022-10-17T20:24:21.548Z,24.20
2022-10-17T20:27:10.179Z,22.60
2022-10-17T20:30:13.862Z,23.93
2022-10-17T20:33:04.167Z,24.53
2022-10-17T20:35:52.166Z,23.00
2022-10-17T20:38:40.389Z,25.10
2022-10-17T20:41:28.631Z,25.07
2022-10-17T20:44:16.955Z,25.80
2022-10-17T20:47:11.856Z,27.23
2022-10-17T20:50:04.986Z,28.23
2022-10-17T20:52:57.262Z,27.23
2022-10-17T20:56:04.776Z,28.67
2022-10-17T20:58:55.309Z,28.97
2022-10-17T21:01:45.056Z,34.07
2022-10-17T21:04:45.788Z,36.47
2022-10-17T21:11:11.986Z,49.17
2022-10-17T21:14:04.793Z,48.87
2022-10-17T21:19:40.506Z,47.77
2022-10-17T21:22:28.796Z,47.80
2022-10-17T21:25:17.282Z,44.40
2022-10-17T21:28:05.471Z,42.55
2022-10-17T21:30:53.244Z,43.20
2022-10-17T21:33:43.101Z,44.07
2022-10-17T21:36:31.607Z,41.20
2022-10-17T21:39:34.817Z,39.97
2022-10-17T21:42:25.675Z,36.43
2022-10-17T21:49:03.419Z,36.53
2022-10-17T21:51:53.668Z,36.23
2022-10-17T21:54:41.696Z,35.83
2022-10-17T21:57:30.226Z,35.67
2022-10-17T22:00:18.266Z,36.37
2022-10-17T22:03:06.844Z,35.70
2022-10-17T22:06:07.030Z,37.03
2022-10-17T22:09:05.526Z,35.43
2022-10-17T22:11:56.805Z,36.23
2022-10-17T22:14:45.939Z,35.30
2022-10-17T22:17:34.053Z,36.80
2022-10-17T22:20:22.226Z,37.67
2022-10-17T22:23:26.337Z,34.80
2022-10-17T22:26:38.652Z,36.90
2022-10-17T22:29:27.153Z,37.20
2022-10-17T22:32:18.699Z,37.13
2022-10-17T22:35:10.384Z,36.60
2022-10-17T22:37:58.412Z,36.60
2022-10-17T22:40:47.185Z,38.13
2022-10-17T22:43:35.367Z,38.20
2022-10-17T22:46:23.767Z,38.20
2022-10-17T22:49:11.788Z,40.27
2022-10-17T22:51:59.471Z,39.37
2022-10-17T22:54:48.684Z,40.30
2022-10-17T22:57:36.542Z,38.37
2022-10-17T23:04:14.515Z,37.87
2022-10-17T23:07:02.441Z,37.63
2022-10-17T23:09:50.662Z,37.60
2022-10-17T23:12:38.778Z,37.40
2022-10-17T23:15:27.102Z,36.20
2022-10-17T23:18:15.229Z,36.90
2022-10-17T23:21:03.894Z,37.25
2022-10-17T23:23:51.789Z,37.17
2022-10-17T23:26:39.753Z,35.37
2022-10-17T23:29:32.762Z,34.73
2022-10-17T23:32:21.668Z,36.40
2022-10-17T23:35:10.887Z,35.43
2022-10-17T23:37:59.208Z,36.23
2022-10-17T23:40:47.625Z,34.63
2022-10-17T23:43:37.597Z,35.17
2022-10-17T23:46:26.000Z,36.30
2022-10-17T23:49:14.111Z,34.20
2022-10-17T23:52:02.154Z,35.83
2022-10-17T23:54:50.081Z,36.30
2022-10-17T23:57:38.021Z,36.27
